Data for 08/07/2007

Time Sea-Level Adjusted Pressure Absolute Pressure Temperature Relative Humidity Dew Point   
(mb) (inHg) (mb) (inHg) (C) (F) (%) (C) (F)
00:05 1014 29.94 843 24.89 17.8 64 47 6.5 43.7
00:10 1014 29.94 843 24.89 17.3 63.1 50 7 44.5
00:15 1014 29.94 843 24.89 17.3 63.1 50 6.7 44.1
00:20 1014 29.94 843 24.89 17.7 63.8 46 5.9 42.6
00:25 1014 29.94 843 24.89 18 64.3 45 6 42.8
00:30 1014 29.94 843 24.89 17.9 64.3 45 5.9 42.6
00:35 1014 29.94 843 24.89 17.8 64 49 7 44.6
00:40 1014 29.94 843 24.89 17.4 63.4 48 6.4 43.5
00:45 1014 29.94 843 24.89 17.3 63.1 51 7.1 44.8
00:50 1014 29.94 843 24.89 17.2 62.9 49 6.4 43.5
00:55 1014 29.94 843 24.89 17.2 62.9 47 5.9 42.5
01:00 1014 29.94 843 24.89 17.3 63.2 52 7.6 45.6
01:05 1014 29.94 843 24.89 17.3 63.1 47 6 42.8
01:10 1014 29.94 843 24.89 17.3 63.1 49 6.6 43.9
01:15 1014 29.94 843 24.89 17.3 63.1 49 6.7 44
01:20 1014 29.94 843 24.89 17.3 63.1 47 6.1 43
01:25 1014 29.94 843 24.89 17.4 63.2 51 7.4 45.3
01:30 1014 29.94 843 24.89 17.6 63.7 49 6.9 44.5
01:35 1014 29.94 843 24.89 16.3 61.3 56 7.6 45.7
01:40 1014 29.94 843 24.89 15 59 59 7.1 44.8
01:45 1014 29.94 843 24.89 14.7 58.4 62 7.5 45.6
01:50 1014 29.94 843 24.89 14.4 57.8 61 7 44.6
01:55 1014 29.94 843 24.89 14.4 57.8 65 7.9 46.2
02:00 1014 29.94 843 24.89 14.7 58.4 60 7 44.5
02:05 1014 29.94 843 24.89 14.6 58.2 60 6.9 44.4
02:10 1014 29.94 843 24.89 14.4 57.9 61 7.1 44.8
02:15 1014 29.94 843 24.89 14 57.2 62 6.9 44.5
02:20 1014 29.94 843 24.89 14 57.2 58 6 42.9
02:25 1014 29.94 843 24.89 14.5 58.2 58 6.5 43.7
02:30 1014 29.94 843 24.89 14.9 58.8 53 5.6 42.1
02:35 1014 29.94 843 24.89 15.4 59.6 53 5.9 42.6
02:40 1014 29.94 843 24.89 15.2 59.3 55 6.3 43.4
02:45 1014 29.94 843 24.89 14.9 58.9 56 6.3 43.4
02:50 1014 29.94 843 24.89 14.8 58.6 56 6.2 43.1
02:55 1014 29.94 843 24.89 14.7 58.5 57 6.5 43.6
03:00 1014 29.94 843 24.89 14.5 58.2 60 7 44.6
03:05 1014 29.94 843 24.89 14.8 58.7 54 5.7 42.3
03:10 1014 29.94 844 24.92 14.8 58.6 57 6.5 43.7
03:15 1014 29.94 843 24.89 14.3 57.8 57 6 42.8
03:20 1014 29.94 843 24.89 13.9 57.1 61 6.5 43.7
03:25 1014 29.94 843 24.89 13.6 56.5 62 6.5 43.7
03:30 1014 29.94 843 24.89 13.6 56.4 61 6.2 43.2
03:35 1014 29.94 843 24.89 13.5 56.4 60 6 42.8
03:40 1014 29.94 843 24.89 13.8 56.8 60 6.2 43.2
03:45 1014 29.94 843 24.89 13.9 56.9 61 6.5 43.7
03:50 1014 29.94 843 24.89 13.1 55.6 64 6.5 43.7
03:55 1014 29.94 843 24.89 13.3 56 60 5.7 42.3
04:00 1014 29.94 843 24.89 13.9 57 59 6 42.9
04:05 1014 29.94 844 24.92 14 57.1 59 6.2 43.1
04:10 1014 29.94 844 24.92 13.7 56.7 61 6.4 43.5
04:15 1014 29.94 844 24.92 13.6 56.5 61 6.3 43.3
04:20 1014 29.94 844 24.92 13.8 56.9 58 5.8 42.5
04:25 1014 29.94 844 24.92 14.2 57.6 57 6 42.7
04:30 1014 29.94 844 24.92 13.7 56.6 63 6.8 44.3
04:35 1014 29.94 844 24.92 13.2 55.8 63 6.5 43.7
04:40 1014 29.94 844 24.92 13.1 55.6 62 6 42.8
04:45 1015 29.97 844 24.92 13 55.4 64 6.5 43.6
04:50 1015 29.97 844 24.92 12.8 55.1 64 6.3 43.3
04:55 1015 29.97 844 24.92 12.6 54.7 65 6.3 43.3
05:00 1015 29.97 844 24.92 12.7 54.9 64 6.1 43
05:05 1015 29.97 844 24.92 13.1 55.5 63 6.1 43
05:10 1015 29.97 844 24.92 13.3 55.9 62 6.2 43.1
05:15 1015 29.97 844 24.92 13.2 55.8 63 6.4 43.4
05:20 1015 29.97 844 24.92 13.4 56 61 6.1 42.9
05:25 1015 29.97 844 24.92 13.3 55.9 62 6.2 43.1
05:30 1015 29.97 844 24.92 13.1 55.6 64 6.4 43.6
05:35 1015 29.97 844 24.92 13.2 55.8 63 6.4 43.5
05:40 1015 29.97 844 24.92 13 55.3 65 6.7 44
05:45 1015 29.97 844 24.92 12.7 54.8 66 6.6 43.9
05:50 1015 29.97 844 24.92 12.7 54.8 66 6.5 43.8
05:55 1015 29.97 844 24.92 12.7 54.8 66 6.6 43.9
06:00 1015 29.97 844 24.92 12.3 54.2 69 6.8 44.3
06:05 1015 29.97 844 24.92 12.1 53.7 67 6.2 43.2
06:10 1015 29.97 844 24.92 12.7 54.9 65 6.3 43.3
06:15 1015 29.97 844 24.92 12.8 55.1 66 6.6 43.9
06:20 1015 29.97 844 24.92 12.5 54.5 68 6.7 44.1
06:25 1015 29.97 844 24.92 12.2 53.9 68 6.5 43.8
06:30 1015 29.97 844 24.92 12.3 54.1 67 6.3 43.4
06:35 1015 29.97 844 24.92 12.6 54.7 64 6 42.8
06:40 1015 29.97 844 24.92 13.1 55.5 63 6.2 43.1
06:45 1015 29.97 844 24.92 13.2 55.8 63 6.3 43.3
06:50 1015 29.97 844 24.92 13.3 55.9 63 6.3 43.4
06:55 1014 29.94 844 24.92 13.2 55.7 62 6.1 43
07:00 1014 29.94 844 24.92 13.4 56 62 6.3 43.3
07:05 1014 29.94 844 24.92 13.3 55.9 64 6.6 43.9
07:10 1014 29.94 844 24.92 13.3 55.9 63 6.5 43.6
07:15 1014 29.94 844 24.92 13.5 56.4 62 6.5 43.7
07:20 1014 29.94 843 24.89 13.8 56.9 60 6.2 43.2
07:25 1014 29.94 843 24.89 14.2 57.6 58 6.2 43.2
07:30 1014 29.94 843 24.89 14.3 57.8 58 6.2 43.1
07:35 1014 29.94 843 24.89 14.9 58.7 55 6 42.8
07:40 1014 29.94 843 24.89 15.3 59.6 53 5.8 42.5
07:45 1014 29.94 843 24.89 15.3 59.6 59 7.5 45.5
07:50 1014 29.94 843 24.89 14.9 58.9 58 6.8 44.2
07:55 1014 29.94 843 24.89 15.4 59.8 55 6.5 43.6
08:00 1014 29.94 843 24.89 15.9 60.5 55 6.9 44.3
08:05 1014 29.94 843 24.89 16.2 61.1 55 7.3 45.2
08:10 1014 29.94 844 24.92 16.5 61.8 55 7.5 45.4
08:15 1014 29.94 844 24.92 16.6 61.8 56 7.9 46.2
08:20 1014 29.94 844 24.92 17.2 63 52 7.4 45.2
08:25 1015 29.97 844 24.92 17.9 64.2 49 7.1 44.8
08:30 1014 29.94 844 24.92 17.3 63.2 50 7 44.7
08:35 1014 29.94 844 24.92 17.8 64 48 6.7 44
08:40 1015 29.97 844 24.92 18.2 64.8 48 7.1 44.8
08:45 1014 29.94 844 24.92 17.4 63.4 52 7.6 45.6
08:50 1015 29.97 844 24.92 17.4 63.3 51 7.3 45.2
08:55 1014 29.94 844 24.92 17.9 64.3 50 7.5 45.5
09:00 1014 29.94 844 24.92 17.2 63 52 7.4 45.4
09:05 1014 29.94 844 24.92 17.6 63.7 52 7.7 45.9
09:10 1014 29.94 844 24.92 17.7 63.9 52 7.8 46.1
09:15 1014 29.94 844 24.92 18.6 65.4 48 7.5 45.6
09:20 1014 29.94 844 24.92 19.3 66.7 47 7.8 46
09:25 1014 29.94 844 24.92 19.4 66.8 48 8.1 46.6
09:30 1014 29.94 844 24.92 19.1 66.3 47 7.8 46
09:35 1014 29.94 844 24.92 20 67.9 45 8 46.3
09:40 1014 29.94 844 24.92 20.2 68.3 44 7.8 46
09:45 1014 29.94 844 24.92 19.9 67.7 46 8.1 46.6
09:50 1015 29.97 844 24.92 19.9 67.7 43 7.1 44.8
09:55 1015 29.97 844 24.92 19.9 67.8 47 8.4 47.2
10:00 1015 29.97 844 24.92 20.3 68.5 45 8.2 46.8
10:05 1015 29.97 844 24.92 20.8 69.4 45 8.7 47.6
10:10 1015 29.97 844 24.92 21 69.8 45 8.7 47.7
10:15 1015 29.97 844 24.92 21.7 71 41 8.2 46.7
10:20 1015 29.97 844 24.92 22 71.5 42 8.8 47.8
10:25 1015 29.97 844 24.92 22.1 71.8 40 8.1 46.5
10:30 1015 29.97 844 24.92 22.5 72.6 40 8.4 47.1
10:35 1015 29.97 844 24.92 22.8 73.1 39 8.2 46.7
10:40 1015 29.97 844 24.92 22.2 71.9 40 8 46.3
10:45 1015 29.97 844 24.92 22.5 72.4 36 6.7 44
10:50 1015 29.97 844 24.92 22.6 72.6 37 7.4 45.3
10:55 1015 29.97 844 24.92 22.9 73.1 35 6.8 44.2
11:00 1015 29.97 844 24.92 23.2 73.8 34 6.6 43.9
11:05 1015 29.97 844 24.92 23.5 74.4 34 7 44.5
11:10 1015 29.97 844 24.92 23.8 74.8 33 6.7 44.1
11:15 1015 29.97 844 24.92 24 75.1 34 7.3 45.1
11:20 1015 29.97 844 24.92 24.1 75.4 33 7 44.6
11:25 1015 29.97 844 24.92 23.9 75.1 35 7.8 46
11:30 1015 29.97 844 24.92 24 75.3 34 7.4 45.3
11:35 1015 29.97 844 24.92 24.2 75.5 34 7.4 45.2
11:40 1015 29.97 844 24.92 23.7 74.7 34 6.9 44.5
11:45 1015 29.97 844 24.92 23.9 75 33 6.8 44.2
11:50 1015 29.97 844 24.92 24.5 76 32 7.1 44.8
11:55 1015 29.97 844 24.92 24.5 76.1 32 6.8 44.2
12:00 1015 29.97 844 24.92 24.4 75.9 31 6.6 43.8
12:05 1015 29.97 844 24.92 24.5 76.2 31 6.3 43.4
12:10 1014 29.94 844 24.92 24.4 75.8 31 6.6 43.8
12:15 1014 29.94 844 24.92 23.8 74.9 32 6.2 43.1
12:20 1014 29.94 844 24.92 24.3 75.7 31 6.1 43
12:25 1014 29.94 843 24.89 25 77 29 5.9 42.7
12:30 1014 29.94 843 24.89 25.5 77.9 27 5.5 41.9
12:35 1014 29.94 843 24.89 25.6 78.1 27 5.3 41.6
12:40 1014 29.94 843 24.89 25.4 77.7 27 5.1 41.2
12:45 1014 29.94 843 24.89 25.5 77.8 27 5.2 41.3
12:50 1014 29.94 843 24.89 25.9 78.6 26 5 41
12:55 1014 29.94 843 24.89 26.9 80.4 24 4.9 40.8
13:00 1014 29.94 843 24.89 26.9 80.5 23 4.6 40.2
13:05 1014 29.94 843 24.89 27.5 81.6 23 4.6 40.3
13:10 1014 29.94 843 24.89 27.7 81.9 21 4 39.2
13:15 1014 29.94 843 24.89 27.4 81.2 21 3.3 38
13:20 1014 29.94 843 24.89 26.6 80 24 4.6 40.2
13:25 1014 29.94 843 24.89 26.5 79.7 21 2.9 37.3
13:30 1014 29.94 843 24.89 26.6 80 22 3.6 38.4
13:35 1014 29.94 843 24.89 26.2 79.2 21 2.6 36.7
13:40 1013 29.91 843 24.89 26.5 79.7 22 3.2 37.7
13:45 1013 29.91 843 24.89 26.4 79.6 22 3.3 38
13:50 1013 29.91 843 24.89 26.2 79.1 23 3.8 38.9
13:55 1013 29.91 843 24.89 26.1 79 22 3.2 37.8
14:00 1013 29.91 843 24.89 26.9 80.4 21 2.8 37.1
14:05 1013 29.91 843 24.89 27.3 81.2 22 3.9 39
14:10 1013 29.91 843 24.89 27.3 81.2 20 2.5 36.5
14:15 1013 29.91 842 24.86 27.8 82.1 19 2.7 36.9
14:20 1013 29.91 842 24.86 27 80.7 21 3 37.5
14:25 1013 29.91 842 24.86 26.3 79.4 21 2.9 37.2
14:30 1014 29.94 843 24.89 26 78.8 20 1.9 35.4
14:35 1014 29.94 843 24.89 25.5 77.9 31 7.2 44.9
14:40 1014 29.94 843 24.89 24.4 75.9 28 4.8 40.6
14:45 1014 29.94 843 24.89 24.3 75.7 33 7.1 44.8
14:50 1014 29.94 843 24.89 24.1 75.3 42 10.7 51.3
14:55 1013 29.91 843 24.89 23.7 74.6 35 7.7 45.8
15:00 1013 29.91 843 24.89 24.1 75.4 32 6.7 44
15:05 1013 29.91 842 24.86 23.8 74.8 37 8.5 47.3
15:10 1013 29.91 842 24.86 23.6 74.4 32 6.2 43.1
15:15 1013 29.91 843 24.89 23.8 74.8 28 4.2 39.6
15:20 1014 29.94 843 24.89 24.2 75.6 29 5.1 41.1
15:25 1014 29.94 843 24.89 25.4 77.6 26 5 40.9
15:30 1014 29.94 843 24.89 25.5 77.9 21 2 35.7
15:35 1014 29.94 843 24.89 25.2 77.4 21 1.6 34.9
15:40 1013 29.91 843 24.89 26.2 79.2 20 2 35.5
15:45 1013 29.91 843 24.89 27.2 81 19 1.6 34.9
15:50 1013 29.91 843 24.89 27 80.6 20 2.1 35.8
15:55 1013 29.91 843 24.89 27.3 81.1 16 -0.2 31.6
16:00 1014 29.94 843 24.89 26.4 79.4 20 2.1 35.8
16:05 1014 29.94 843 24.89 25.4 77.8 23 2.8 37
16:10 1014 29.94 843 24.89 25.2 77.4 20 1.1 34
16:15 1014 29.94 843 24.89 25.1 77.2 21 1.3 34.4
16:20 1014 29.94 843 24.89 25 76.9 20 0.6 33.1
16:25 1014 29.94 843 24.89 24.6 76.3 22 1.6 34.9
16:30 1014 29.94 843 24.89 24.4 75.9 21 1.2 34.1
16:35 1014 29.94 843 24.89 24.5 76.1 21 0.9 33.6
16:40 1014 29.94 843 24.89 24.3 75.7 19 -0.3 31.5
16:45 1013 29.91 843 24.89 24.5 76.1 20 0.6 33.2
16:50 1013 29.91 843 24.89 24.5 76.1 21 1.3 34.3
16:55 1014 29.94 843 24.89 24.5 76.1 21 1.2 34.2
17:00 1014 29.94 843 24.89 24.3 75.8 22 1.5 34.7
17:05 1014 29.94 843 24.89 24.2 75.6 22 1.7 35
17:10 1014 29.94 843 24.89 24.1 75.3 22 1.4 34.5
17:15 1014 29.94 843 24.89 23.8 74.8 23 1.5 34.6
17:20 1014 29.94 844 24.92 23.5 74.3 22 0.7 33.3
17:25 1014 29.94 843 24.89 23.2 73.8 22 0.6 33.2
17:30 1014 29.94 843 24.89 23.1 73.6 23 1 33.8
17:35 1014 29.94 843 24.89 23.2 73.7 24 1.5 34.6
17:40 1014 29.94 843 24.89 23.2 73.7 24 1.9 35.4
17:45 1014 29.94 843 24.89 23.3 73.9 24 1.7 35.1
17:50 1014 29.94 843 24.89 23.2 73.7 25 2.1 35.9
17:55 1014 29.94 843 24.89 23.1 73.5 26 2.6 36.7
18:00 1014 29.94 843 24.89 23 73.3 26 2.7 36.8
18:05 1014 29.94 843 24.89 22.8 73.1 29 3.9 39
18:10 1014 29.94 843 24.89 22.6 72.7 30 4.2 39.5
18:15 1013 29.91 842 24.86 22.6 72.7 25 1.9 35.5
18:20 1013 29.91 842 24.86 23 73.3 25 2 35.6
18:25 1013 29.91 842 24.86 23.3 74 26 2.8 37
18:30 1013 29.91 842 24.86 23.5 74.3 26 3.1 37.6
18:35 1013 29.91 842 24.86 23.4 74.2 27 3.5 38.3
18:40 1013 29.91 842 24.86 23.5 74.2 26 3 37.4
18:45 1013 29.91 842 24.86 23.6 74.4 24 2.3 36.1
18:50 1013 29.91 842 24.86 23.4 74.2 26 2.8 37.1
18:55 1013 29.91 843 24.89 23.3 73.9 26 2.8 37.1
19:00 1013 29.91 842 24.86 23.1 73.5 26 2.7 36.8
19:05 1013 29.91 842 24.86 23 73.3 28 3.8 38.8
19:10 1013 29.91 842 24.86 22.9 73.1 29 4.1 39.3
19:15 1013 29.91 842 24.86 22.6 72.7 29 4 39.2
19:20 1013 29.91 842 24.86 22.5 72.5 31 4.8 40.7
19:25 1013 29.91 842 24.86 22.4 72.2 30 3.9 39.1
19:30 1013 29.91 842 24.86 22.4 72.3 31 4.5 40
19:35 1013 29.91 842 24.86 22.5 72.4 30 4.1 39.3
19:40 1013 29.91 842 24.86 22.4 72.4 31 4.9 40.8
19:45 1013 29.91 842 24.86 22.2 72 30 4.1 39.5
19:50 1013 29.91 843 24.89 22.2 71.9 30 4 39.2
19:55 1013 29.91 843 24.89 22.2 72 32 4.8 40.6
20:00 1013 29.91 843 24.89 22.3 72.1 33 5.4 41.7
20:05 1014 29.94 843 24.89 21.9 71.3 32 4.6 40.3
20:10 1014 29.94 843 24.89 21.8 71.3 31 4.2 39.6
20:15 1014 29.94 843 24.89 21.9 71.4 25 1.4 34.6
20:20 1014 29.94 843 24.89 22.2 71.9 24 0.9 33.7
20:25 1014 29.94 843 24.89 22.1 71.8 25 1.6 34.9
20:30 1014 29.94 843 24.89 22 71.5 25 1.3 34.4
20:35 1014 29.94 843 24.89 22 71.7 23 0.3 32.5
20:40 1014 29.94 844 24.92 22.2 71.9 25 1.2 34.2
20:45 1015 29.97 844 24.92 22 71.6 24 0.4 32.8
20:50 1015 29.97 844 24.92 21.8 71.2 25 0.8 33.5
20:55 1015 29.97 844 24.92 21.5 70.7 25 0.9 33.6
21:00 1015 29.97 844 24.92 21.2 70.2 26 1 33.9
21:05 1015 29.97 844 24.92 20.9 69.7 27 1.5 34.7
21:10 1015 29.97 844 24.92 20.7 69.3 27 1.2 34.1
21:15 1015 29.97 844 24.92 20.7 69.2 28 1.5 34.7
21:20 1015 29.97 845 24.95 20.5 68.8 27 1.2 34.2
21:25 1015 29.97 844 24.92 20.3 68.6 28 1.4 34.6
21:30 1015 29.97 844 24.92 20.3 68.5 28 1.6 34.8
21:35 1015 29.97 845 24.95 20.2 68.4 29 1.8 35.3
21:40 1015 29.97 845 24.95 19.7 67.5 30 1.6 34.9
21:45 1016 30 845 24.95 19.6 67.3 31 2.1 35.7
21:50 1015 29.97 845 24.95 19.3 66.7 31 2 35.6
21:55 1015 29.97 845 24.95 19.2 66.5 32 2.4 36.3
22:00 1016 30 845 24.95 18.9 66 35 3.2 37.8
22:05 1016 30 845 24.95 18.4 65.1 35 2.7 36.8
22:10 1016 30 845 24.95 18.8 65.8 33 2.4 36.2
22:15 1016 30 845 24.95 19.2 66.5 32 2.4 36.4
22:20 1016 30 845 24.95 19.4 67 31 2.1 35.8
22:25 1016 30 845 24.95 19.6 67.3 29 1.3 34.3
22:30 1016 30 845 24.95 19.7 67.5 28 0.7 33.2
22:35 1016 30 845 24.95 20.2 68.4 26 0.5 33
22:40 1015 29.97 845 24.95 20.5 68.9 26 0.4 32.8
22:45 1015 29.97 844 24.92 20.6 69 27 1 33.8
22:50 1015 29.97 844 24.92 20.5 69 24 -0.5 31.1
22:55 1015 29.97 844 24.92 20.4 68.7 26 0.5 32.9
23:00 1016 30 845 24.95 19.8 67.7 29 1.5 34.6
23:05 1016 30 845 24.95 19.4 66.9 31 2 35.6
23:10 1016 30 845 24.95 19.3 66.7 30 1.4 34.4
23:15 1016 30 845 24.95 19.4 66.8 30 1.7 35
23:20 1015 29.97 845 24.95 19.3 66.8 32 2.4 36.4
23:25 1015 29.97 845 24.95 19.4 67 29 0.9 33.6
23:30 1015 29.97 845 24.95 19.2 66.5 31 1.6 34.8
23:35 1015 29.97 845 24.95 18.7 65.6 31 1.5 34.7
23:40 1015 29.97 845 24.95 18.5 65.3 32 1.8 35.2
23:45 1015 29.97 845 24.95 18.1 64.6 32 1.5 34.7
23:50 1015 29.97 845 24.95 17.8 64.1 35 2.2 36
23:55 1016 30 845 24.95 17.1 62.8 37 2.4 36.3
24:00 1016 30 845 24.95 17 62.6 35 1.5 34.8